Time;durP1;ratioP1;P1;durP2;ratioP2;P2;SDS_P1;SDS_P2;PMS_P1;PMS_P2;Temp;Humidity;BMP_temperature;BMP_pressure;BME280_temperature;BME280_humidity;BME280_pressure;Samples;Min_cycle;Max_cycle;Signal;HPM_P1;HPM_P2
2021/07/18 00:02:06;;;;;;;22.42;4.32;;;36.50;65.20;;;;;;5066638;28;20049;-66
2021/07/18 00:04:32;;;;;;;18.70;4.38;;;37.00;41.40;;;;;;5063864;28;20573;-66
2021/07/18 00:06:59;;;;;;;21.83;4.32;;;37.00;40.30;;;;;;5069767;28;20076;-66
2021/07/18 00:09:26;;;;;;;17.52;4.90;;;37.20;60.20;;;;;;5062722;28;20055;-67
2021/07/18 00:11:52;;;;;;;21.80;5.03;;;37.00;57.70;;;;;;5067615;28;20411;-66
2021/07/18 00:14:19;;;;;;;14.95;4.40;;;36.80;45.40;;;;;;5065080;28;20045;-67
2021/07/18 00:16:45;;;;;;;16.95;4.05;;;36.80;42.20;;;;;;5069184;28;20199;-66
2021/07/18 00:19:12;;;;;;;17.48;4.15;;;36.70;42.40;;;;;;5064145;28;20122;-66
2021/07/18 00:21:39;;;;;;;14.40;3.97;;;36.60;42.40;;;;;;5043595;28;20404;-65
2021/07/18 00:24:05;;;;;;;13.40;3.30;;;36.20;59.90;;;;;;5064893;28;20071;-65
2021/07/18 00:26:32;;;;;;;14.55;4.65;;;36.50;41.00;;;;;;5068306;28;20072;-65
2021/07/18 00:28:59;;;;;;;15.57;2.67;;;36.70;59.30;;;;;;5063719;28;20070;-65
2021/07/18 00:31:25;;;;;;;11.98;2.95;;;36.60;40.90;;;;;;5064492;28;20084;-65
2021/07/18 00:33:52;;;;;;;8.93;2.30;;;36.30;62.70;;;;;;5061655;28;20088;-66
2021/07/18 00:36:19;;;;;;;12.82;2.67;;;36.40;41.40;;;;;;5063776;28;20145;-66
2021/07/18 00:38:46;;;;;;;11.68;3.00;;;36.30;44.00;;;;;;5062207;28;20156;-67
2021/07/18 00:41:13;;;;;;;14.10;2.70;;;36.50;42.40;;;;;;5069973;28;20533;-66
2021/07/18 00:43:39;;;;;;;16.55;2.65;;;36.30;43.10;;;;;;5068298;28;20488;-66
2021/07/18 00:46:06;;;;;;;16.70;2.83;;;36.40;43.80;;;;;;5059645;28;20431;-66
2021/07/18 00:48:34;;;;;;;20.52;3.22;;;36.40;43.90;;;;;;5065992;28;20084;-65
2021/07/18 00:51:02;;;;;;;20.92;3.45;;;36.30;43.40;;;;;;5066174;28;20135;-65
2021/07/18 00:53:30;;;;;;;20.13;4.32;;;36.30;43.40;;;;;;5060435;28;20072;-65
2021/07/18 00:55:57;;;;;;;22.45;5.05;;;36.40;43.20;;;;;;5063019;28;20085;-65
2021/07/18 00:58:28;;;;;;;17.85;4.60;;;36.30;43.30;;;;;;5064534;28;20127;-66
2021/07/18 01:00:54;;;;;;;21.65;5.32;;;36.30;43.50;;;;;;5067397;28;20105;-65
2021/07/18 01:03:22;;;;;;;20.17;5.65;;;36.30;43.60;;;;;;5061426;28;20139;-65
2021/07/18 01:05:48;;;;;;;20.75;6.32;;;36.30;43.50;;;;;;5061101;28;20153;-66
2021/07/18 01:08:16;;;;;;;26.27;4.00;;;36.30;43.50;;;;;;5069152;28;20497;-65
2021/07/18 01:10:43;;;;;;;14.77;3.25;;;36.10;64.10;;;;;;5066715;28;20160;-65
2021/07/18 01:13:10;;;;;;;11.25;2.97;;;36.50;43.80;;;;;;5064170;28;20094;-66
2021/07/18 01:15:39;;;;;;;26.05;3.15;;;36.40;60.00;;;;;;5064946;28;20173;-65
2021/07/18 01:18:11;;;;;;;14.48;3.50;;;36.40;62.20;;;;;;5067404;28;20091;-65
2021/07/18 01:20:39;;;;;;;19.25;5.95;;;36.40;59.30;;;;;;5062090;28;20071;-66
2021/07/18 01:23:06;;;;;;;27.92;7.00;;;36.20;59.30;;;;;;5061119;28;20585;-66
2021/07/18 01:25:36;;;;;;;18.92;4.47;;;36.40;61.40;;;;;;5028022;28;20069;-66
2021/07/18 01:28:11;;;;;;;15.02;3.25;;;36.40;57.90;;;;;;5061133;28;20096;-66
2021/07/18 01:30:38;;;;;;;18.77;4.28;;;36.20;60.00;;;;;;5061193;28;20143;-65
2021/07/18 01:33:04;;;;;;;17.20;3.00;;;36.10;56.50;;;;;;5058540;28;20122;-65
2021/07/18 01:35:31;;;;;;;13.02;3.55;;;36.30;38.80;;;;;;5066196;28;20080;-65
2021/07/18 01:38:00;;;;;;;19.95;4.00;;;36.30;57.10;;;;;;5064087;28;20066;-65
2021/07/18 01:40:26;;;;;;;16.27;3.50;;;36.40;45.30;;;;;;5064353;28;20069;-66
2021/07/18 01:42:55;;;;;;;15.60;4.07;;;36.30;54.50;;;;;;5064376;28;20099;-66
2021/07/18 01:45:23;;;;;;;12.35;4.40;;;36.20;64.00;;;;;;5064055;28;20131;-64
2021/07/18 01:47:49;;;;;;;15.40;3.65;;;;;;;;;;5063312;28;20077;-67
2021/07/18 01:50:16;;;;;;;14.40;3.35;;;36.30;79.90;;;;;;5066076;28;20178;-66
2021/07/18 01:52:43;;;;;;;15.88;4.45;;;36.30;50.70;;;;;;5063244;28;20036;-65
2021/07/18 01:55:11;;;;;;;25.80;4.20;;;36.30;56.30;;;;;;5065125;28;20029;-66
2021/07/18 01:57:39;;;;;;;14.65;4.55;;;;;;;;;;5064517;28;20101;-66
2021/07/18 02:00:08;;;;;;;18.52;4.63;;;36.50;54.70;;;;;;5065073;28;20112;-66
2021/07/18 02:02:34;;;;;;;18.17;4.47;;;36.40;59.00;;;;;;5063699;28;20490;-66
2021/07/18 02:05:01;;;;;;;16.25;3.90;;;36.30;59.10;;;;;;5060721;28;20063;-66
2021/07/18 02:07:28;;;;;;;24.30;13.93;;;36.40;59.00;;;;;;5066329;28;20021;-66
2021/07/18 02:09:56;;;;;;;16.10;4.43;;;36.40;53.10;;;;;;5063702;28;20025;-66
2021/07/18 02:12:23;;;;;;;27.42;4.72;;;;;;;;;;5064336;28;20078;-66
2021/07/18 02:14:49;;;;;;;10.77;3.60;;;;;;;;;;5068651;28;20050;-67
2021/07/18 02:17:16;;;;;;;9.30;3.05;;;36.30;45.40;;;;;;5066402;28;20033;-65
2021/07/18 02:19:42;;;;;;;13.98;3.60;;;;;;;;;;5065477;28;20032;-66
2021/07/18 02:22:11;;;;;;;11.65;3.15;;;36.70;68.00;;;;;;5068331;28;20036;-65
2021/07/18 02:24:37;;;;;;;21.38;3.90;;;36.40;40.20;;;;;;5067400;28;20025;-66
2021/07/18 02:27:07;;;;;;;16.13;3.80;;;36.50;65.90;;;;;;5068654;28;20040;-66
2021/07/18 02:29:34;;;;;;;12.02;3.28;;;36.30;39.00;;;;;;5063767;28;20469;-65
2021/07/18 02:32:00;;;;;;;11.60;2.97;;;36.40;39.30;;;;;;5066617;28;20184;-66
2021/07/18 02:34:27;;;;;;;14.02;2.85;;;36.30;39.60;;;;;;5068503;28;20077;-65
2021/07/18 02:36:53;;;;;;;16.55;3.63;;;36.30;39.80;;;;;;5069689;28;20534;-66
2021/07/18 02:39:21;;;;;;;13.55;3.00;;;36.20;39.80;;;;;;5049100;28;20430;-66
2021/07/18 02:41:48;;;;;;;12.38;2.63;;;;;;;;;;5066768;28;20437;-66
2021/07/18 02:44:14;;;;;;;18.70;3.08;;;36.30;72.30;;;;;;5067956;28;20120;-66
2021/07/18 02:46:41;;;;;;;13.50;3.10;;;35.80;67.70;;;;;;5064807;28;20524;-66
2021/07/18 02:49:07;;;;;;;17.33;3.00;;;36.10;40.70;;;;;;5067479;28;20058;-66
2021/07/18 02:51:34;;;;;;;13.27;2.80;;;36.10;58.70;;;;;;5060951;28;20101;-66
2021/07/18 02:54:00;;;;;;;12.40;3.50;;;36.10;38.80;;;;;;5045089;28;20063;-66
2021/07/18 02:56:27;;;;;;;20.25;3.97;;;36.10;38.60;;;;;;5066453;28;20155;-66
2021/07/18 02:58:53;;;;;;;16.77;4.10;;;36.00;38.40;;;;;;5069338;28;20076;-66
2021/07/18 03:01:20;;;;;;;13.95;3.70;;;35.90;38.90;;;;;;5066375;28;20075;-65
2021/07/18 03:03:47;;;;;;;10.50;2.80;;;35.80;38.10;;;;;;5063531;28;20104;-66
2021/07/18 03:06:14;;;;;;;11.70;3.00;;;35.90;38.40;;;;;;5046570;28;20069;-66
2021/07/18 03:08:41;;;;;;;15.35;2.67;;;;;;;;;;5066279;28;20069;-65
2021/07/18 03:11:07;;;;;;;15.50;3.10;;;35.80;51.20;;;;;;5063398;28;20463;-65
2021/07/18 03:13:34;;;;;;;15.43;3.47;;;35.80;38.50;;;;;;5067910;28;20154;-65
2021/07/18 03:16:00;;;;;;;14.23;3.20;;;35.50;72.40;;;;;;5067596;28;20083;-66
2021/07/18 03:18:27;;;;;;;14.65;3.05;;;35.70;48.90;;;;;;5064093;28;20037;-66
2021/07/18 03:20:53;;;;;;;13.48;3.40;;;;;;;;;;5062264;28;20066;-65
2021/07/18 03:23:20;;;;;;;17.50;3.47;;;35.90;46.10;;;;;;5063805;28;20029;-64
2021/07/18 03:25:46;;;;;;;17.70;3.95;;;35.70;38.60;;;;;;5065569;28;20120;-66
2021/07/18 03:28:13;;;;;;;14.35;2.80;;;35.60;38.90;;;;;;5049604;28;20080;-65
2021/07/18 03:30:39;;;;;;;13.70;3.20;;;35.60;39.20;;;;;;5064753;28;20069;-62
2021/07/18 03:33:06;;;;;;;14.38;2.90;;;35.40;56.40;;;;;;5064139;28;20494;-65
2021/07/18 03:35:33;;;;;;;14.15;2.90;;;;;;;;;;5065039;28;20042;-65
2021/07/18 03:37:59;;;;;;;14.98;3.15;;;35.30;54.10;;;;;;5068762;28;20044;-65
2021/07/18 03:40:28;;;;;;;13.82;3.15;;;35.30;39.70;;;;;;5064607;28;20123;-65
2021/07/18 03:42:55;;;;;;;21.70;3.78;;;35.20;39.80;;;;;;5064925;28;20105;-65
2021/07/18 03:45:22;;;;;;;19.88;3.40;;;35.00;70.30;;;;;;5047001;28;20025;-66
2021/07/18 03:47:49;;;;;;;15.90;3.63;;;35.20;62.20;;;;;;5064203;28;20107;-65
2021/07/18 03:50:16;;;;;;;14.35;3.30;;;35.20;39.70;;;;;;5063791;28;20174;-65
2021/07/18 03:52:47;;;;;;;16.80;4.10;;;35.10;39.70;;;;;;5063434;28;20043;-65
2021/07/18 03:55:14;;;;;;;21.02;3.78;;;35.20;41.90;;;;;;5069619;28;20077;-65
2021/07/18 03:57:42;;;;;;;16.13;3.80;;;35.20;55.00;;;;;;5061400;28;20163;-66
2021/07/18 04:00:09;;;;;;;15.35;3.50;;;34.50;55.90;;;;;;5062996;28;20029;-66
2021/07/18 04:02:35;;;;;;;11.68;3.70;;;35.20;49.40;;;;;;5046291;28;20102;-66
2021/07/18 04:05:02;;;;;;;18.58;3.60;;;34.90;43.30;;;;;;5063834;28;20111;-66
2021/07/18 04:07:32;;;;;;;17.58;4.07;;;35.40;74.30;;;;;;5063705;28;20069;-65
2021/07/18 04:10:00;;;;;;;13.80;3.55;;;35.70;81.30;;;;;;5069087;28;20065;-65
2021/07/18 04:12:27;;;;;;;18.80;3.47;;;34.80;56.50;;;;;;5063500;28;20101;-65
2021/07/18 04:14:54;;;;;;;16.10;3.42;;;34.60;72.40;;;;;;5064985;28;20020;-66
2021/07/18 04:17:21;;;;;;;14.27;3.60;;;34.60;74.40;;;;;;5065951;28;20028;-67
2021/07/18 04:19:47;;;;;;;12.75;4.18;;;34.60;45.30;;;;;;5060900;28;20207;-65
2021/07/18 04:22:14;;;;;;;16.13;4.03;;;34.60;44.80;;;;;;5063532;28;20081;-66
2021/07/18 04:24:40;;;;;;;18.35;3.33;;;34.70;51.00;;;;;;5068838;28;20073;-66
2021/07/18 04:27:07;;;;;;;10.77;3.47;;;;;;;;;;5052105;28;20069;-65
2021/07/18 04:29:33;;;;;;;18.20;3.50;;;;;;;;;;5070350;28;20082;-65
2021/07/18 04:32:00;;;;;;;11.52;3.58;;;34.40;45.10;;;;;;5071278;28;20032;-64
2021/07/18 04:34:27;;;;;;;16.05;3.72;;;34.50;73.60;;;;;;5062859;28;20024;-67
2021/07/18 04:36:59;;;;;;;15.65;3.47;;;34.50;68.30;;;;;;5069539;28;20036;-65
2021/07/18 04:39:26;;;;;;;21.10;4.30;;;;;;;;;;5067204;28;20069;-65
2021/07/18 04:41:56;;;;;;;18.83;3.40;;;34.50;71.80;;;;;;5066159;28;20355;-66
2021/07/18 04:44:23;;;;;;;18.88;3.83;;;34.50;43.20;;;;;;5064025;28;20085;-66
2021/07/18 04:46:50;;;;;;;17.65;3.25;;;34.50;43.40;;;;;;5061550;28;20065;-64
2021/07/18 04:49:16;;;;;;;16.23;3.55;;;34.40;43.40;;;;;;5066468;28;20116;-65
2021/07/18 04:51:43;;;;;;;19.45;3.78;;;34.40;43.60;;;;;;5067460;28;20100;-64
2021/07/18 04:54:09;;;;;;;17.27;3.80;;;34.40;43.70;;;;;;5069278;28;20146;-65
2021/07/18 04:56:36;;;;;;;18.35;3.72;;;34.40;44.10;;;;;;5062604;28;20077;-65
2021/07/18 04:59:02;;;;;;;14.65;3.80;;;34.40;44.10;;;;;;5063801;28;20085;-65
2021/07/18 05:01:29;;;;;;;19.55;3.78;;;34.40;44.40;;;;;;5067220;28;20135;-66
2021/07/18 05:03:55;;;;;;;17.55;3.63;;;34.40;44.80;;;;;;5067171;28;20080;-65
2021/07/18 05:06:22;;;;;;;22.10;4.25;;;34.20;45.10;;;;;;5043921;28;20073;-66
2021/07/18 05:08:49;;;;;;;13.27;3.80;;;33.90;57.50;;;;;;5069575;28;20423;-66
2021/07/18 05:11:19;;;;;;;14.75;3.38;;;34.00;45.60;;;;;;5045855;28;20111;-65
2021/07/18 05:13:46;;;;;;;19.02;4.10;;;34.10;46.00;;;;;;5066935;28;20097;-65
2021/07/18 05:16:13;;;;;;;17.15;3.58;;;33.90;76.50;;;;;;5060987;28;20098;-65
2021/07/18 05:18:39;;;;;;;20.95;4.30;;;34.00;46.10;;;;;;5060070;28;20069;-65
2021/07/18 05:21:06;;;;;;;20.30;4.25;;;33.90;46.60;;;;;;5062253;28;20431;-65
2021/07/18 05:23:33;;;;;;;12.00;4.03;;;33.90;47.20;;;;;;5061682;28;20146;-65
2021/07/18 05:25:59;;;;;;;13.70;4.40;;;33.90;47.70;;;;;;5059894;28;20079;-65
2021/07/18 05:28:26;;;;;;;21.60;4.28;;;33.80;47.90;;;;;;5059229;28;20085;-64
2021/07/18 05:30:52;;;;;;;17.98;4.70;;;33.80;48.30;;;;;;5061189;28;20077;-65
2021/07/18 05:33:19;;;;;;;19.48;3.70;;;33.80;48.50;;;;;;5060476;28;20097;-65
2021/07/18 05:35:45;;;;;;;20.02;4.70;;;33.70;48.70;;;;;;5063323;28;20531;-65
2021/07/18 05:38:12;;;;;;;21.65;4.28;;;33.70;48.80;;;;;;5061552;28;20084;-66
2021/07/18 05:40:38;;;;;;;23.00;4.63;;;33.70;49.20;;;;;;5061498;28;20104;-65
2021/07/18 05:43:05;;;;;;;14.73;4.25;;;33.80;49.50;;;;;;5064106;28;20080;-65
2021/07/18 05:45:32;;;;;;;16.25;3.53;;;33.80;49.50;;;;;;5063681;28;20109;-65
2021/07/18 05:47:58;;;;;;;14.90;3.75;;;33.60;49.80;;;;;;5059749;28;20415;-65
2021/07/18 05:50:25;;;;;;;23.33;3.80;;;33.60;50.40;;;;;;5068067;28;20135;-65
2021/07/18 05:52:51;;;;;;;18.63;3.50;;;33.50;50.40;;;;;;5063772;28;20140;-65
2021/07/18 05:55:18;;;;;;;24.13;3.50;;;33.50;50.60;;;;;;5067954;28;20081;-65
2021/07/18 05:57:44;;;;;;;17.75;3.33;;;33.50;50.80;;;;;;5068650;28;20077;-65
2021/07/18 06:00:13;;;;;;;14.02;3.03;;;33.50;51.00;;;;;;5066070;28;20167;-64
2021/07/18 06:02:40;;;;;;;13.52;2.97;;;33.40;51.10;;;;;;5066885;28;20138;-66
2021/07/18 06:05:08;;;;;;;13.98;3.15;;;33.30;51.60;;;;;;5066016;28;20077;-65
2021/07/18 06:07:36;;;;;;;10.23;2.88;;;33.30;51.80;;;;;;5065160;28;20870;-66
2021/07/18 06:10:08;;;;;;;12.25;2.80;;;33.20;51.70;;;;;;5066644;28;20073;-65
2021/07/18 06:12:34;;;;;;;13.95;2.88;;;33.30;51.60;;;;;;5066813;28;20180;-65
2021/07/18 06:15:01;;;;;;;11.68;2.80;;;33.10;51.40;;;;;;5065196;28;20073;-65
2021/07/18 06:17:28;;;;;;;22.30;2.90;;;33.00;51.40;;;;;;5069266;28;20105;-65
2021/07/18 06:19:54;;;;;;;9.73;2.70;;;33.00;51.40;;;;;;5067096;28;20160;-66
2021/07/18 06:22:21;;;;;;;16.00;3.20;;;33.00;51.50;;;;;;5064980;28;20062;-65
2021/07/18 06:24:47;;;;;;;20.30;3.17;;;33.00;51.60;;;;;;5062925;28;20433;-66
2021/07/18 06:27:14;;;;;;;16.05;3.92;;;33.00;51.90;;;;;;5068961;28;20087;-67
2021/07/18 06:29:40;;;;;;;17.17;3.92;;;32.90;52.00;;;;;;5065457;28;20720;-64
2021/07/18 06:32:08;;;;;;;10.57;3.60;;;32.90;52.10;;;;;;5064874;28;20097;-64
2021/07/18 06:34:34;;;;;;;10.98;3.38;;;32.90;52.20;;;;;;5066636;28;20070;-65
2021/07/18 06:37:01;;;;;;;7.82;3.35;;;32.80;52.10;;;;;;5065921;28;20073;-64
2021/07/18 06:39:27;;;;;;;11.57;3.60;;;32.80;52.10;;;;;;5061876;28;20191;-65
2021/07/18 06:41:54;;;;;;;14.43;4.00;;;32.90;52.10;;;;;;5060780;28;20100;-66
2021/07/18 06:44:21;;;;;;;13.05;3.80;;;32.90;51.60;;;;;;5067974;28;20073;-65
2021/07/18 06:46:47;;;;;;;13.00;3.33;;;32.80;51.30;;;;;;5065412;28;21757;-66
2021/07/18 06:49:14;;;;;;;16.95;4.40;;;32.80;50.60;;;;;;5065207;28;20105;-65
2021/07/18 06:51:40;;;;;;;10.40;4.05;;;32.80;50.40;;;;;;5064535;28;20442;-66
2021/07/18 06:54:07;;;;;;;13.70;4.22;;;32.80;50.10;;;;;;5070581;28;20085;-67
2021/07/18 06:56:33;;;;;;;16.95;5.03;;;32.80;49.90;;;;;;5066870;28;20073;-66
2021/07/18 06:59:00;;;;;;;13.90;5.40;;;32.80;50.60;;;;;;5065258;28;20085;-65
2021/07/18 07:01:27;;;;;;;17.38;7.25;;;32.80;50.00;;;;;;5061180;28;20485;-66
2021/07/18 07:03:54;;;;;;;22.60;6.70;;;32.80;49.70;;;;;;5070432;28;20077;-66
2021/07/18 07:06:21;;;;;;;22.60;6.97;;;32.70;49.40;;;;;;5063558;28;20088;-65
2021/07/18 07:08:47;;;;;;;15.55;7.00;;;32.70;49.20;;;;;;5047271;28;20106;-65
2021/07/18 07:11:16;;;;;;;24.17;6.88;;;32.70;49.40;;;;;;5066870;28;20092;-65
2021/07/18 07:13:42;;;;;;;16.83;6.57;;;32.80;49.50;;;;;;5062618;28;20164;-65
2021/07/18 07:16:09;;;;;;;14.00;6.53;;;32.70;49.60;;;;;;5067225;28;20115;-65
2021/07/18 07:18:36;;;;;;;15.85;6.72;;;32.80;50.00;;;;;;5067066;28;20073;-65
2021/07/18 07:21:02;;;;;;;15.88;6.35;;;32.60;50.50;;;;;;5066563;28;20152;-65
2021/07/18 07:23:29;;;;;;;11.90;5.60;;;32.60;50.80;;;;;;5067655;28;20170;-65
2021/07/18 07:25:56;;;;;;;15.40;4.60;;;32.60;51.20;;;;;;5067982;28;20073;-64
2021/07/18 07:28:22;;;;;;;11.90;3.30;;;32.60;51.60;;;;;;5067236;28;20081;-65
2021/07/18 07:30:49;;;;;;;12.52;3.80;;;32.60;51.80;;;;;;5063635;28;20546;-65
2021/07/18 07:33:16;;;;;;;13.02;4.00;;;32.60;51.90;;;;;;5068019;28;20191;-64
2021/07/18 07:35:43;;;;;;;26.48;4.93;;;32.60;52.00;;;;;;5065034;28;20073;-64
2021/07/18 07:38:09;;;;;;;12.13;4.60;;;32.50;52.20;;;;;;5064226;28;20069;-65
2021/07/18 07:40:36;;;;;;;15.25;4.15;;;32.40;52.20;;;;;;5062777;28;20077;-66
2021/07/18 07:43:04;;;;;;;7.97;3.40;;;32.40;52.30;;;;;;5063427;28;20156;-66
2021/07/18 07:45:31;;;;;;;12.52;3.92;;;32.30;52.40;;;;;;5070469;28;20065;-66
2021/07/18 07:47:57;;;;;;;11.77;3.03;;;32.30;52.50;;;;;;5065242;28;20119;-65
2021/07/18 07:50:24;;;;;;;9.40;2.80;;;32.30;52.60;;;;;;5042723;28;20136;-65
2021/07/18 07:52:51;;;;;;;10.85;3.15;;;32.30;52.60;;;;;;5066729;28;20093;-65
2021/07/18 07:55:18;;;;;;;15.95;3.58;;;32.30;52.70;;;;;;5066215;28;20100;-65
2021/07/18 07:57:44;;;;;;;13.23;3.60;;;32.30;52.80;;;;;;5060266;28;20082;-65
2021/07/18 08:00:13;;;;;;;14.15;3.53;;;32.40;53.00;;;;;;5064082;28;20065;-64
2021/07/18 08:02:41;;;;;;;9.68;3.42;;;32.30;53.10;;;;;;5066384;28;20078;-65
2021/07/18 08:05:09;;;;;;;11.30;3.25;;;32.30;53.10;;;;;;5062527;28;20591;-65
2021/07/18 08:07:36;;;;;;;9.85;3.70;;;32.30;53.30;;;;;;5067748;28;20085;-65
2021/07/18 08:10:09;;;;;;;12.93;3.15;;;32.30;53.20;;;;;;5044106;28;20092;-65
2021/07/18 08:12:36;;;;;;;16.08;3.70;;;32.20;53.40;;;;;;5053960;28;20089;-65
2021/07/18 08:15:04;;;;;;;13.50;3.78;;;32.20;53.60;;;;;;5066509;28;20073;-65
2021/07/18 08:17:31;;;;;;;18.65;3.72;;;32.20;53.70;;;;;;5062630;28;20074;-65
2021/07/18 08:19:57;;;;;;;20.95;4.05;;;32.20;53.90;;;;;;5067165;28;20069;-65
2021/07/18 08:22:24;;;;;;;19.75;4.53;;;32.20;54.00;;;;;;5068873;28;20092;-65
2021/07/18 08:24:50;;;;;;;17.45;5.00;;;32.20;54.10;;;;;;5068224;28;20073;-65
2021/07/18 08:27:17;;;;;;;13.88;4.53;;;32.10;54.30;;;;;;5047362;28;20077;-65
2021/07/18 08:29:43;;;;;;;19.30;4.72;;;32.10;54.50;;;;;;5066253;28;20066;-64
2021/07/18 08:32:10;;;;;;;13.15;4.95;;;32.10;54.70;;;;;;5064933;28;20101;-65
2021/07/18 08:34:36;;;;;;;13.48;4.70;;;32.00;55.00;;;;;;5045459;28;20077;-64
2021/07/18 08:37:03;;;;;;;13.85;3.70;;;32.00;55.30;;;;;;5062794;28;20097;-66
2021/07/18 08:39:29;;;;;;;14.02;3.08;;;32.10;56.10;;;;;;5063347;28;20073;-66
2021/07/18 08:41:56;;;;;;;12.75;4.03;;;32.00;55.50;;;;;;5068328;28;20131;-65
2021/07/18 08:44:23;;;;;;;12.27;3.92;;;32.00;55.80;;;;;;5061600;28;20403;-65
2021/07/18 08:46:50;;;;;;;14.57;3.30;;;31.90;56.00;;;;;;5065388;28;20084;-65
2021/07/18 08:49:16;;;;;;;11.13;3.33;;;31.90;56.30;;;;;;5046356;28;20132;-66
2021/07/18 08:51:43;;;;;;;12.23;3.30;;;31.90;56.40;;;;;;5065569;28;20462;-65
2021/07/18 08:54:10;;;;;;;9.57;2.92;;;31.90;56.40;;;;;;5064057;28;20077;-65
2021/07/18 08:56:37;;;;;;;13.13;3.22;;;31.90;56.50;;;;;;5063648;28;20077;-65
2021/07/18 08:59:06;;;;;;;13.10;3.15;;;31.90;63.60;;;;;;5064122;28;20040;-65
2021/07/18 09:01:41;;;;;;;15.40;3.38;;;31.90;56.80;;;;;;5061736;28;20081;-65
2021/07/18 09:04:08;;;;;;;15.18;3.10;;;31.80;57.20;;;;;;5061582;28;20080;-66
2021/07/18 09:06:42;;;;;;;11.35;2.75;;;31.80;57.50;;;;;;5062363;28;20100;-66
2021/07/18 09:09:09;;;;;;;8.18;3.10;;;31.80;57.60;;;;;;5064196;28;20122;-66
2021/07/18 09:11:36;;;;;;;12.70;3.65;;;31.80;57.80;;;;;;5067023;28;20131;-66
2021/07/18 09:14:08;;;;;;;13.45;4.45;;;31.70;58.30;;;;;;5062719;28;20085;-64
2021/07/18 09:16:39;;;;;;;17.55;5.88;;;31.70;58.70;;;;;;5049463;28;20065;-64
2021/07/18 09:19:29;;;;;;;14.65;6.03;;;31.70;59.10;;;;;;5067817;28;20088;-65
2021/07/18 09:22:07;;;;;;;18.73;5.90;;;31.70;59.50;;;;;;5046705;28;20160;-65
2021/07/18 09:24:35;;;;;;;13.70;5.95;;;31.60;59.70;;;;;;5065347;28;20244;-65
2021/07/18 09:27:11;;;;;;;13.43;6.05;;;31.60;59.90;;;;;;5069384;28;20155;-65
2021/07/18 09:29:49;;;;;;;11.25;5.43;;;31.50;60.10;;;;;;5070587;28;20433;-65
2021/07/18 09:32:27;;;;;;;11.80;5.28;;;31.50;60.60;;;;;;5069045;28;20101;-65
2021/07/18 09:34:59;;;;;;;14.55;5.45;;;31.30;61.20;;;;;;5049025;28;20131;-65
2021/07/18 09:37:41;;;;;;;12.50;4.68;;;31.40;61.40;;;;;;5062249;28;20422;-65
2021/07/18 09:40:12;;;;;;;12.38;4.40;;;31.30;61.40;;;;;;5065014;28;20088;-65
2021/07/18 09:42:43;;;;;;;10.80;4.47;;;31.30;61.90;;;;;;5064812;28;20073;-65
2021/07/18 09:45:13;;;;;;;13.80;4.97;;;31.30;61.90;;;;;;5065585;28;20078;-65
2021/07/18 09:48:05;;;;;;;16.23;5.70;;;31.30;62.10;;;;;;5067575;28;20069;-65
2021/07/18 09:50:40;;;;;;;15.93;6.35;;;31.20;62.40;;;;;;5062368;28;20219;-66
2021/07/18 09:53:18;;;;;;;14.82;5.28;;;31.10;62.90;;;;;;5065774;28;20131;-64
2021/07/18 09:55:59;;;;;;;13.13;5.28;;;30.90;75.10;;;;;;5067055;28;20069;-64
2021/07/18 09:58:27;;;;;;;18.42;5.03;;;31.10;62.30;;;;;;5068685;28;20070;-65
2021/07/18 10:00:55;;;;;;;13.15;4.20;;;30.80;75.70;;;;;;5068488;28;20642;-65
2021/07/18 10:03:24;;;;;;;14.43;4.32;;;31.30;64.30;;;;;;5067963;28;20120;-65
2021/07/18 10:06:07;;;;;;;19.25;5.03;;;31.30;68.30;;;;;;5067482;28;20135;-65
2021/07/18 10:08:33;;;;;;;13.63;4.75;;;;;;;;;;5066926;28;20167;-65
2021/07/18 10:11:00;;;;;;;16.40;5.38;;;30.80;93.80;;;;;;5075444;28;20031;-65
2021/07/18 10:13:27;;;;;;;11.98;4.85;;;30.80;64.10;;;;;;5049016;28;20154;-65
2021/07/18 10:15:54;;;;;;;16.92;5.35;;;;;;;;;;5065413;28;20633;-65
2021/07/18 10:18:21;;;;;;;14.00;4.68;;;30.80;63.50;;;;;;5067508;28;20025;-65
2021/07/18 10:20:48;;;;;;;15.27;4.35;;;30.90;64.20;;;;;;5067189;28;20077;-65
2021/07/18 10:23:16;;;;;;;16.20;4.45;;;;;;;;;;5064179;28;20078;-65
2021/07/18 10:25:45;;;;;;;13.23;4.15;;;32.70;65.60;;;;;;5068778;28;21600;-65
2021/07/18 10:28:11;;;;;;;16.95;4.20;;;30.80;64.70;;;;;;5069692;28;20172;-65
2021/07/18 10:30:43;;;;;;;17.38;4.13;;;30.80;64.90;;;;;;5066951;28;20073;-65
2021/07/18 10:33:10;;;;;;;13.27;3.58;;;30.70;65.50;;;;;;5062554;28;20097;-65
2021/07/18 10:35:37;;;;;;;11.00;3.20;;;30.40;76.90;;;;;;5068336;28;20122;-65
2021/07/18 10:38:18;;;;;;;8.85;3.42;;;30.70;65.60;;;;;;5068996;28;20073;-65
2021/07/18 10:40:47;;;;;;;14.52;3.53;;;30.70;66.20;;;;;;5070466;28;20430;-65
2021/07/18 10:43:34;;;;;;;9.02;2.60;;;30.60;66.70;;;;;;5067277;28;20087;-64
2021/07/18 10:46:00;;;;;;;8.00;3.03;;;30.60;66.80;;;;;;5062456;28;20069;-64
2021/07/18 10:48:46;;;;;;;12.10;3.05;;;30.50;67.40;;;;;;5063746;28;20094;-64
2021/07/18 10:51:17;;;;;;;7.33;2.63;;;30.40;68.20;;;;;;5065245;28;20113;-65
2021/07/18 10:53:45;;;;;;;9.98;2.78;;;30.40;68.50;;;;;;5070617;28;20084;-64
2021/07/18 10:56:19;;;;;;;10.15;3.55;;;30.40;68.70;;;;;;5067277;28;20103;-65
2021/07/18 10:58:47;;;;;;;8.40;2.53;;;30.40;69.20;;;;;;5065669;28;20080;-66
2021/07/18 11:01:35;;;;;;;9.45;3.30;;;30.30;69.60;;;;;;5064899;28;20100;-65
2021/07/18 11:04:04;;;;;;;7.50;2.58;;;30.20;70.20;;;;;;5062779;28;20081;-65
2021/07/18 11:06:37;;;;;;;10.20;2.55;;;30.10;71.10;;;;;;5064436;28;20073;-66
2021/07/18 11:09:16;;;;;;;8.23;2.85;;;30.00;71.60;;;;;;5066500;28;20078;-66
2021/07/18 11:11:48;;;;;;;14.30;3.50;;;30.10;71.90;;;;;;5067525;28;20097;-65
2021/07/18 11:14:27;;;;;;;13.20;2.70;;;30.00;72.20;;;;;;5069712;28;20073;-65
2021/07/18 11:16:56;;;;;;;11.63;3.30;;;30.00;72.50;;;;;;5065428;28;20302;-65
2021/07/18 11:19:38;;;;;;;8.43;3.60;;;30.00;73.10;;;;;;5067524;28;20412;-65
2021/07/18 11:22:10;;;;;;;10.45;3.28;;;29.90;73.10;;;;;;5064187;28;20174;-65
2021/07/18 11:24:56;;;;;;;10.10;3.10;;;29.80;74.00;;;;;;5068234;28;20083;-65
2021/07/18 11:27:32;;;;;;;16.45;3.83;;;29.80;73.90;;;;;;5066501;28;20065;-65
2021/07/18 11:30:00;;;;;;;17.52;3.05;;;29.80;74.60;;;;;;5059251;28;20088;-64
2021/07/18 11:32:29;;;;;;;13.07;3.38;;;29.80;75.00;;;;;;5065254;28;20200;-64
2021/07/18 11:34:56;;;;;;;13.60;3.17;;;29.80;75.60;;;;;;5065752;28;20164;-63
2021/07/18 11:37:25;;;;;;;10.38;3.17;;;29.80;75.70;;;;;;5046904;28;20080;-63
2021/07/18 11:39:58;;;;;;;10.75;3.00;;;29.80;76.20;;;;;;5063347;28;20560;-64
2021/07/18 11:42:26;;;;;;;8.45;3.42;;;29.80;77.20;;;;;;5064063;28;20073;-64
2021/07/18 11:44:53;;;;;;;10.63;2.80;;;29.80;77.90;;;;;;5063647;28;20079;-64
2021/07/18 11:47:20;;;;;;;10.30;2.72;;;29.70;78.40;;;;;;5064072;28;20168;-64
2021/07/18 11:49:48;;;;;;;9.25;2.63;;;29.70;91.10;;;;;;5061754;28;20652;-64
2021/07/18 11:52:17;;;;;;;9.23;2.70;;;29.70;79.80;;;;;;5067925;28;20158;-64
2021/07/18 11:54:44;;;;;;;7.75;2.67;;;29.70;80.30;;;;;;5062314;28;20072;-64
2021/07/18 11:57:17;;;;;;;9.60;2.60;;;29.60;81.00;;;;;;5066543;28;20479;-64
2021/07/18 11:59:48;;;;;;;6.57;2.60;;;29.70;81.40;;;;;;5046468;28;20108;-64
2021/07/18 12:02:15;;;;;;;8.93;2.55;;;29.70;82.10;;;;;;5065937;28;20077;-64
2021/07/18 12:04:43;;;;;;;8.05;2.22;;;29.70;83.20;;;;;;5063225;28;20084;-64
2021/07/18 12:07:11;;;;;;;9.85;2.63;;;29.60;83.50;;;;;;5049681;28;20073;-64
2021/07/18 12:09:45;;;;;;;10.98;2.72;;;29.60;84.20;;;;;;5064197;28;20105;-64
2021/07/18 12:12:21;;;;;;;8.23;2.45;;;29.50;84.50;;;;;;5064968;28;20143;-64
2021/07/18 12:14:48;;;;;;;10.15;2.92;;;29.40;84.90;;;;;;5063087;28;20068;-65
2021/07/18 12:17:15;;;;;;;11.23;3.17;;;29.50;85.10;;;;;;5064840;28;20159;-65
2021/07/18 12:19:42;;;;;;;10.15;3.38;;;29.40;84.80;;;;;;5064036;28;20077;-64
2021/07/18 12:22:18;;;;;;;8.48;3.40;;;29.40;84.20;;;;;;5066456;28;20111;-64
2021/07/18 12:24:48;;;;;;;;;;;29.30;83.50;;;;;;5066531;28;20434;-65
2021/07/18 12:27:18;;;;;;;12.55;4.32;;;29.40;82.60;;;;;;5069197;28;20048;-65
2021/07/18 12:29:44;;;;;;;13.43;4.90;;;29.30;81.80;;;;;;5065917;28;20073;-65
2021/07/18 12:32:12;;;;;;;12.98;4.78;;;29.00;99.90;;;;;;5065793;28;20125;-65
2021/07/18 12:34:53;;;;;;;19.98;5.45;;;29.30;79.00;;;;;;5065785;28;20067;-65
2021/07/18 12:37:22;;;;;;;13.15;5.65;;;29.20;78.00;;;;;;5061603;28;20477;-65
2021/07/18 12:39:53;;;;;;;13.55;5.38;;;29.20;76.50;;;;;;5064188;28;20151;-65
2021/07/18 12:42:45;;;;;;;18.05;6.32;;;29.10;87.20;;;;;;5066407;28;20076;-65
2021/07/18 12:45:17;;;;;;;13.43;5.60;;;29.20;77.30;;;;;;5060412;28;20458;-65
2021/07/18 12:47:45;;;;;;;17.88;6.03;;;29.10;92.30;;;;;;5065290;28;20076;-65
2021/07/18 12:50:31;;;;;;;13.60;5.53;;;29.20;95.00;;;;;;5065380;28;20062;-65